createdAt,value
2022-11-07T00:01:19.195Z,2.30
2022-11-07T00:03:46.969Z,1.87
2022-11-07T00:06:13.987Z,2.05
2022-11-07T00:08:40.992Z,2.75
2022-11-07T00:11:08.145Z,3.45
2022-11-07T00:13:35.330Z,3.17
2022-11-07T00:16:05.083Z,3.35
2022-11-07T00:18:32.944Z,2.78
2022-11-07T00:21:04.394Z,5.13
2022-11-07T00:23:31.496Z,2.03
2022-11-07T00:26:10.849Z,4.95
2022-11-07T00:28:40.703Z,1.80
2022-11-07T00:31:08.923Z,2.33
2022-11-07T00:33:35.944Z,4.68
2022-11-07T00:36:03.095Z,2.28
2022-11-07T00:38:30.556Z,2.28
2022-11-07T00:40:59.309Z,1.08
2022-11-07T00:43:27.033Z,2.17
2022-11-07T00:45:54.299Z,4.78
2022-11-07T00:48:21.369Z,3.28
2022-11-07T00:50:48.782Z,2.33
2022-11-07T00:53:16.174Z,1.48
2022-11-07T00:55:43.531Z,2.20
2022-11-07T00:58:13.867Z,1.80
2022-11-07T01:00:41.487Z,2.28
2022-11-07T01:03:27.401Z,1.98
2022-11-07T01:06:02.430Z,2.17
2022-11-07T01:08:29.863Z,2.60
2022-11-07T01:10:57.358Z,3.17
2022-11-07T01:13:25.272Z,2.42
2022-11-07T01:15:52.650Z,5.90
2022-11-07T01:18:19.968Z,2.35
2022-11-07T01:20:47.104Z,3.13
2022-11-07T01:23:14.676Z,7.10
2022-11-07T01:25:42.236Z,3.10
2022-11-07T01:28:10.620Z,2.90
2022-11-07T01:30:42.269Z,2.65
2022-11-07T01:33:09.897Z,4.35
2022-11-07T01:35:37.632Z,2.28
2022-11-07T01:38:04.788Z,3.42
2022-11-07T01:40:34.073Z,2.38
2022-11-07T01:43:01.147Z,4.57
2022-11-07T01:45:30.095Z,4.50
2022-11-07T01:48:02.538Z,3.33
2022-11-07T01:50:30.845Z,3.05
2022-11-07T01:52:58.032Z,3.50
2022-11-07T01:55:31.986Z,6.00
2022-11-07T01:58:04.611Z,2.13
2022-11-07T02:00:32.541Z,5.63
2022-11-07T02:03:05.408Z,1.55
2022-11-07T02:05:36.273Z,5.75
2022-11-07T02:08:06.716Z,4.28
2022-11-07T02:10:35.409Z,4.13
2022-11-07T02:13:03.430Z,2.92
2022-11-07T02:15:30.778Z,4.03
2022-11-07T02:17:58.924Z,2.83
2022-11-07T02:20:26.012Z,5.15
2022-11-07T02:22:58.575Z,2.20
2022-11-07T02:25:26.208Z,3.30
2022-11-07T02:27:58.707Z,2.03
2022-11-07T02:30:28.400Z,1.98
2022-11-07T02:32:55.640Z,3.63
2022-11-07T02:35:41.497Z,1.67
2022-11-07T02:38:32.515Z,2.38
2022-11-07T02:41:07.269Z,3.00
2022-11-07T02:43:37.714Z,2.05
2022-11-07T02:46:07.728Z,5.35
2022-11-07T02:48:43.266Z,3.03
2022-11-07T02:51:10.487Z,3.28
2022-11-07T02:53:37.620Z,2.67
2022-11-07T02:56:05.757Z,1.42
2022-11-07T02:58:33.503Z,2.10
2022-11-07T03:01:07.290Z,1.23
2022-11-07T03:06:07.906Z,3.30
2022-11-07T03:08:35.193Z,2.08
2022-11-07T03:11:02.896Z,1.40
2022-11-07T03:13:30.033Z,2.47
2022-11-07T03:15:57.396Z,2.15
2022-11-07T03:18:24.596Z,3.17
2022-11-07T03:20:51.883Z,3.38
2022-11-07T03:23:18.810Z,2.10
2022-11-07T03:25:45.783Z,1.98
2022-11-07T03:28:13.220Z,3.35
2022-11-07T03:30:40.176Z,3.15
2022-11-07T03:33:07.273Z,4.65
2022-11-07T03:35:34.376Z,1.65
2022-11-07T03:38:01.437Z,2.33
2022-11-07T03:40:28.451Z,1.83
2022-11-07T03:42:55.496Z,2.20
2022-11-07T03:45:22.581Z,3.97
2022-11-07T03:47:49.633Z,3.63
2022-11-07T03:50:19.833Z,5.20
2022-11-07T03:52:47.820Z,2.30
2022-11-07T03:55:21.534Z,4.35
2022-11-07T04:00:16.346Z,3.03
2022-11-07T04:02:44.272Z,2.83
2022-11-07T04:05:12.199Z,3.95
2022-11-07T04:07:39.243Z,3.63
2022-11-07T04:10:07.026Z,6.85
2022-11-07T04:12:52.459Z,4.57
2022-11-07T04:15:38.057Z,4.68
2022-11-07T04:18:05.131Z,5.85
2022-11-07T04:20:32.247Z,6.00
2022-11-07T04:22:59.405Z,5.65
2022-11-07T04:25:45.026Z,4.07
2022-11-07T04:28:12.196Z,6.25
2022-11-07T04:30:39.139Z,5.45
2022-11-07T04:33:06.164Z,6.57
2022-11-07T04:35:34.210Z,5.03
2022-11-07T04:38:01.906Z,2.92
2022-11-07T04:40:29.410Z,7.50
2022-11-07T04:42:56.735Z,3.85
2022-11-07T04:45:24.366Z,5.43
2022-11-07T04:47:51.709Z,4.88
2022-11-07T04:50:20.056Z,3.42
2022-11-07T04:52:48.319Z,4.45
2022-11-07T04:55:25.284Z,3.03
2022-11-07T04:57:52.789Z,2.55
2022-11-07T05:00:20.989Z,4.00
2022-11-07T05:02:49.304Z,3.90
2022-11-07T05:05:17.599Z,3.90
2022-11-07T05:07:44.851Z,3.75
2022-11-07T05:10:23.520Z,1.92
2022-11-07T05:12:51.212Z,5.07
2022-11-07T05:15:18.859Z,3.70
2022-11-07T05:17:46.135Z,3.15
2022-11-07T05:20:30.501Z,2.35
2022-11-07T05:23:13.913Z,2.00
2022-11-07T05:25:44.312Z,1.90
2022-11-07T05:28:13.764Z,2.83
2022-11-07T05:30:42.319Z,5.10
2022-11-07T05:33:10.729Z,3.53
2022-11-07T05:35:38.208Z,4.38
2022-11-07T05:38:05.376Z,5.35
2022-11-07T05:40:34.486Z,3.25
2022-11-07T05:43:06.549Z,2.63
2022-11-07T05:45:37.852Z,4.03
2022-11-07T05:48:10.408Z,4.70
2022-11-07T05:50:38.141Z,4.00
2022-11-07T05:53:05.922Z,2.25
2022-11-07T05:55:33.391Z,3.20
2022-11-07T05:58:06.670Z,2.80
2022-11-07T06:00:34.398Z,2.90
2022-11-07T06:03:01.669Z,3.20
2022-11-07T06:05:29.883Z,2.35
2022-11-07T06:07:56.894Z,3.30
2022-11-07T06:10:24.271Z,4.95
2022-11-07T06:13:17.763Z,3.33
2022-11-07T06:15:46.490Z,6.25
2022-11-07T06:18:17.828Z,2.88
2022-11-07T06:20:45.265Z,3.30
2022-11-07T06:23:12.976Z,5.60
2022-11-07T06:25:40.324Z,2.60
2022-11-07T06:28:10.083Z,6.20
2022-11-07T06:30:37.441Z,5.57
2022-11-07T06:33:07.056Z,3.97
2022-11-07T06:35:34.590Z,4.70
2022-11-07T06:38:03.833Z,3.55
2022-11-07T06:40:31.408Z,3.30
2022-11-07T06:43:20.157Z,3.72
2022-11-07T06:45:48.114Z,4.25
2022-11-07T06:48:15.412Z,3.55
2022-11-07T06:50:42.856Z,3.55
2022-11-07T06:53:11.980Z,4.15
2022-11-07T06:55:39.873Z,4.03
2022-11-07T06:58:07.261Z,4.53
2022-11-07T07:00:36.453Z,6.22
2022-11-07T07:03:04.330Z,4.53
2022-11-07T07:05:33.257Z,5.30
2022-11-07T07:08:00.236Z,4.25
2022-11-07T07:10:27.319Z,6.15
2022-11-07T07:12:54.801Z,4.65
2022-11-07T07:15:21.979Z,2.35
2022-11-07T07:17:49.489Z,5.57
2022-11-07T07:20:16.654Z,10.32
2022-11-07T07:22:45.305Z,6.53
2022-11-07T07:25:12.339Z,7.20
2022-11-07T07:27:39.266Z,4.35
2022-11-07T07:30:15.118Z,4.97
2022-11-07T07:32:45.748Z,4.85
2022-11-07T07:35:12.906Z,4.95
2022-11-07T07:37:39.936Z,3.28
2022-11-07T07:40:07.652Z,5.40
2022-11-07T07:42:34.706Z,4.53
2022-11-07T07:45:01.743Z,2.72
2022-11-07T07:47:28.809Z,3.65
2022-11-07T07:49:55.919Z,6.97
2022-11-07T07:52:22.884Z,4.78
2022-11-07T07:54:49.910Z,7.13
2022-11-07T07:57:17.200Z,2.78
2022-11-07T07:59:44.559Z,6.70
2022-11-07T08:02:12.248Z,3.85
2022-11-07T08:04:41.215Z,6.07
2022-11-07T08:07:08.363Z,4.72
2022-11-07T08:09:38.295Z,6.80
2022-11-07T08:12:08.982Z,5.65
2022-11-07T08:14:36.135Z,6.22
2022-11-07T08:17:03.622Z,7.75
2022-11-07T08:19:30.675Z,8.75
2022-11-07T08:21:57.698Z,6.20
2022-11-07T08:24:24.754Z,3.97
2022-11-07T08:26:51.743Z,8.32
2022-11-07T08:29:18.766Z,2.90
2022-11-07T08:31:46.166Z,4.80
2022-11-07T08:34:13.219Z,4.90
2022-11-07T08:36:40.203Z,5.05
2022-11-07T08:39:07.287Z,11.35
2022-11-07T08:41:34.411Z,15.15
2022-11-07T08:44:01.480Z,12.85
2022-11-07T08:46:28.548Z,8.40
2022-11-07T08:48:55.516Z,8.35
2022-11-07T08:51:22.523Z,7.88
2022-11-07T08:53:49.627Z,5.43
2022-11-07T08:56:16.675Z,4.88
2022-11-07T08:58:43.716Z,4.65
2022-11-07T09:01:11.444Z,4.85
2022-11-07T09:03:51.717Z,4.93
2022-11-07T09:06:20.683Z,4.70
2022-11-07T09:08:47.684Z,4.90
2022-11-07T09:11:16.085Z,2.60
2022-11-07T09:13:43.274Z,3.03
2022-11-07T09:16:11.264Z,4.85
2022-11-07T09:18:38.842Z,6.60
2022-11-07T09:21:06.004Z,8.55
2022-11-07T09:23:33.030Z,3.28
2022-11-07T09:26:03.660Z,5.72
2022-11-07T09:28:30.871Z,5.78
2022-11-07T09:30:59.132Z,3.00
2022-11-07T09:33:27.040Z,5.00
2022-11-07T09:35:54.554Z,4.95
2022-11-07T09:38:21.551Z,6.07
2022-11-07T09:41:21.151Z,6.70
2022-11-07T09:43:51.057Z,5.75
2022-11-07T09:46:55.493Z,4.35
2022-11-07T09:49:31.234Z,5.72
2022-11-07T09:52:07.374Z,5.97
2022-11-07T09:54:39.931Z,14.90
2022-11-07T09:57:14.181Z,73.47
2022-11-07T09:59:56.078Z,63.50
2022-11-07T10:02:29.645Z,115.47
2022-11-07T10:04:59.096Z,107.35
2022-11-07T10:07:47.662Z,90.72
2022-11-07T10:10:31.916Z,90.55
2022-11-07T10:13:04.700Z,105.95
2022-11-07T10:15:59.109Z,93.88
2022-11-07T10:18:42.526Z,87.47
2022-11-07T10:21:38.910Z,99.35
2022-11-07T10:24:31.688Z,93.40
2022-11-07T10:26:59.007Z,82.15
2022-11-07T10:29:40.346Z,87.97
2022-11-07T10:32:19.972Z,92.50
2022-11-07T10:35:02.380Z,79.82
2022-11-07T10:37:29.510Z,89.97
2022-11-07T10:39:56.588Z,78.07
2022-11-07T10:42:27.617Z,58.05
2022-11-07T10:44:56.889Z,67.68
2022-11-07T10:47:25.831Z,98.00
2022-11-07T10:50:01.092Z,84.78
2022-11-07T10:52:29.785Z,106.68
2022-11-07T10:55:18.866Z,87.28
2022-11-07T10:57:51.182Z,71.15
2022-11-07T11:00:41.143Z,61.83
2022-11-07T11:03:41.857Z,60.45
2022-11-07T11:06:19.397Z,48.90
2022-11-07T11:08:48.281Z,52.35
2022-11-07T11:11:21.315Z,56.85
2022-11-07T11:13:49.469Z,50.97
2022-11-07T11:16:28.459Z,32.58
2022-11-07T11:18:58.069Z,40.35
2022-11-07T11:21:25.779Z,58.00
2022-11-07T11:23:54.523Z,46.85
2022-11-07T11:26:21.717Z,38.90
2022-11-07T11:29:00.182Z,54.80
2022-11-07T11:31:33.576Z,49.25
2022-11-07T11:34:06.253Z,57.78
2022-11-07T11:36:41.843Z,72.65
2022-11-07T11:39:26.555Z,58.67
2022-11-07T11:41:59.317Z,31.38
2022-11-07T11:44:41.948Z,59.75
2022-11-07T11:47:34.558Z,36.22
2022-11-07T11:50:11.011Z,33.38
2022-11-07T11:52:38.121Z,20.20
2022-11-07T11:55:14.558Z,21.38
2022-11-07T11:58:11.501Z,26.48
2022-11-07T12:01:12.480Z,31.02
2022-11-07T12:04:24.601Z,28.42
2022-11-07T12:06:57.775Z,30.38
2022-11-07T12:09:34.277Z,28.73
2022-11-07T12:12:10.063Z,40.47
2022-11-07T12:14:58.796Z,35.22
2022-11-07T12:17:37.672Z,41.03
2022-11-07T12:20:04.924Z,59.10
2022-11-07T12:22:45.265Z,39.22
2022-11-07T12:25:30.380Z,41.63
2022-11-07T12:28:07.673Z,32.60
2022-11-07T12:31:00.486Z,33.58
2022-11-07T12:33:36.271Z,43.03
2022-11-07T12:36:47.804Z,61.78
2022-11-07T12:39:43.660Z,64.43
2022-11-07T12:42:13.370Z,45.33
2022-11-07T12:45:07.933Z,37.15
2022-11-07T12:47:56.173Z,34.00
2022-11-07T12:50:43.915Z,31.08
2022-11-07T12:53:25.675Z,39.92
2022-11-07T12:56:07.515Z,41.47
2022-11-07T12:58:38.224Z,46.38
2022-11-07T13:01:06.149Z,43.92
2022-11-07T13:03:51.910Z,40.92
2022-11-07T13:06:23.763Z,40.15
2022-11-07T13:09:16.968Z,46.13
2022-11-07T13:12:08.295Z,49.63
2022-11-07T13:14:40.326Z,51.38
2022-11-07T13:17:20.473Z,35.20
2022-11-07T13:20:00.719Z,36.28
2022-11-07T13:22:38.076Z,42.20
2022-11-07T13:25:16.355Z,39.85
2022-11-07T13:28:05.471Z,31.95
2022-11-07T13:30:36.203Z,27.52
2022-11-07T13:33:04.546Z,49.72
2022-11-07T13:35:39.290Z,46.00
2022-11-07T13:38:14.425Z,35.95
2022-11-07T13:41:07.963Z,37.30
2022-11-07T13:43:46.082Z,27.58
2022-11-07T13:46:32.298Z,36.33
2022-11-07T13:49:07.055Z,32.28
2022-11-07T13:51:46.537Z,36.88
2022-11-07T13:54:29.031Z,25.63
2022-11-07T13:57:25.895Z,28.63
2022-11-07T13:59:57.768Z,26.33
2022-11-07T14:02:27.726Z,37.25
2022-11-07T14:05:17.240Z,26.02
2022-11-07T14:08:26.058Z,23.50
2022-11-07T14:10:54.243Z,42.63
2022-11-07T14:13:36.936Z,30.08
2022-11-07T14:16:23.197Z,20.00
2022-11-07T14:18:52.232Z,21.10
2022-11-07T14:21:34.590Z,20.33
2022-11-07T14:24:01.760Z,18.17
2022-11-07T14:26:33.846Z,15.65
2022-11-07T14:29:02.381Z,16.58
2022-11-07T14:31:37.596Z,25.45
2022-11-07T14:34:25.509Z,28.52
2022-11-07T14:36:56.390Z,18.25
2022-11-07T14:39:25.966Z,25.27
2022-11-07T14:41:55.623Z,14.05
2022-11-07T14:44:47.591Z,24.98
2022-11-07T14:47:27.236Z,23.27
2022-11-07T14:49:55.039Z,24.75
2022-11-07T14:52:31.767Z,10.07
2022-11-07T14:55:13.684Z,27.23
2022-11-07T14:57:41.361Z,19.42
2022-11-07T15:00:14.618Z,15.52
2022-11-07T15:02:42.391Z,14.98
2022-11-07T15:05:44.168Z,14.32
2022-11-07T15:08:28.504Z,21.65
2022-11-07T15:11:22.389Z,18.73
2022-11-07T15:13:49.496Z,16.73
2022-11-07T15:16:19.491Z,20.45
2022-11-07T15:18:58.455Z,26.52
2022-11-07T15:21:34.609Z,28.98
2022-11-07T15:24:25.846Z,32.50
2022-11-07T15:27:37.176Z,18.27
2022-11-07T15:30:06.205Z,37.47
2022-11-07T15:32:37.068Z,23.65
2022-11-07T15:35:43.498Z,26.30
2022-11-07T15:38:02.668Z,48.00
2022-11-07T15:40:30.008Z,17.95
2022-11-07T15:42:57.416Z,19.35
2022-11-07T15:45:24.912Z,13.60
2022-11-07T15:47:52.198Z,12.20
2022-11-07T15:50:22.509Z,18.75
2022-11-07T15:52:49.751Z,18.73
2022-11-07T15:55:19.511Z,21.92
2022-11-07T15:57:49.081Z,40.45
2022-11-07T16:00:23.261Z,25.70
2022-11-07T16:02:50.528Z,21.25
2022-11-07T16:05:18.365Z,16.13
2022-11-07T16:07:46.284Z,19.73
2022-11-07T16:10:23.013Z,23.88
2022-11-07T16:12:50.954Z,18.67
2022-11-07T16:15:20.850Z,25.58
2022-11-07T16:17:48.478Z,22.63
2022-11-07T16:20:20.453Z,29.33
2022-11-07T16:22:48.534Z,21.27
2022-11-07T16:25:21.864Z,17.73
2022-11-07T16:28:00.669Z,13.88
2022-11-07T16:30:28.411Z,17.15
2022-11-07T16:32:55.782Z,15.15
2022-11-07T16:35:23.831Z,19.38
2022-11-07T16:37:50.916Z,15.88
2022-11-07T16:40:19.758Z,10.82
2022-11-07T16:42:47.973Z,10.23
2022-11-07T16:45:20.739Z,8.65
2022-11-07T16:47:48.867Z,18.10
2022-11-07T16:50:17.406Z,44.60
2022-11-07T16:52:44.450Z,23.23
2022-11-07T16:55:16.369Z,37.65
2022-11-07T16:57:43.537Z,24.05
2022-11-07T17:00:23.174Z,23.27
2022-11-07T17:02:51.187Z,24.65
2022-11-07T17:05:18.835Z,19.48
2022-11-07T17:07:46.040Z,17.35
2022-11-07T17:10:17.504Z,25.05
2022-11-07T17:12:44.618Z,17.67
2022-11-07T17:15:12.083Z,24.95
2022-11-07T17:17:39.651Z,20.35
2022-11-07T17:20:07.809Z,15.90
2022-11-07T17:22:34.938Z,15.95
2022-11-07T17:25:02.034Z,16.13
2022-11-07T17:27:29.103Z,23.95
2022-11-07T17:29:56.408Z,23.42
2022-11-07T17:32:23.457Z,21.75
2022-11-07T17:35:17.766Z,19.08
2022-11-07T17:37:38.175Z,22.38
2022-11-07T17:40:07.024Z,22.60
2022-11-07T17:42:38.105Z,21.17
2022-11-07T17:45:06.610Z,33.20
2022-11-07T17:47:34.605Z,23.42
2022-11-07T17:50:01.896Z,27.58
2022-11-07T17:52:29.008Z,23.00
2022-11-07T17:54:55.950Z,28.83
2022-11-07T17:57:22.946Z,14.90
2022-11-07T17:59:49.975Z,31.33
2022-11-07T18:02:18.941Z,21.02
2022-11-07T18:04:46.794Z,35.03
2022-11-07T18:07:14.073Z,47.10
2022-11-07T18:09:41.810Z,25.60
2022-11-07T18:12:09.517Z,23.27
2022-11-07T18:14:36.717Z,15.77
2022-11-07T18:17:04.100Z,19.48
2022-11-07T18:19:31.252Z,52.10
2022-11-07T18:21:58.344Z,67.00
2022-11-07T18:24:25.396Z,56.63
2022-11-07T18:26:52.852Z,47.03
2022-11-07T18:29:20.026Z,34.25
2022-11-07T18:31:51.751Z,38.75
2022-11-07T18:34:19.928Z,27.13
2022-11-07T18:36:47.129Z,26.80
2022-11-07T18:39:23.937Z,28.25
2022-11-07T18:41:52.444Z,28.48
2022-11-07T18:44:19.669Z,24.35
2022-11-07T18:46:47.185Z,22.33
2022-11-07T18:49:15.807Z,20.15
2022-11-07T18:51:45.782Z,19.10
2022-11-07T18:54:14.063Z,17.83
2022-11-07T18:56:41.730Z,19.88
2022-11-07T18:59:08.804Z,22.35
2022-11-07T19:01:35.909Z,29.08
2022-11-07T19:04:06.049Z,21.75
2022-11-07T19:06:33.993Z,19.90
2022-11-07T19:09:01.025Z,20.33
2022-11-07T19:11:30.538Z,21.52
2022-11-07T19:14:01.342Z,25.98
2022-11-07T19:16:31.378Z,23.30
2022-11-07T19:19:00.089Z,24.00
2022-11-07T19:21:27.814Z,25.00
2022-11-07T19:23:54.912Z,15.23
2022-11-07T19:26:21.928Z,14.00
2022-11-07T19:28:49.073Z,12.05
2022-11-07T19:31:16.227Z,19.20
2022-11-07T19:33:43.946Z,19.67
2022-11-07T19:36:16.880Z,16.42
2022-11-07T19:38:44.897Z,17.05
2022-11-07T19:41:13.152Z,17.35
2022-11-07T19:43:42.706Z,12.73
2022-11-07T19:46:23.095Z,15.55
2022-11-07T19:48:51.069Z,19.70
2022-11-07T19:51:22.954Z,19.05
2022-11-07T19:53:58.531Z,13.82
2022-11-07T19:56:27.514Z,16.40
2022-11-07T19:58:54.758Z,16.58
2022-11-07T20:01:26.011Z,15.48
2022-11-07T20:03:54.081Z,14.25
2022-11-07T20:06:30.690Z,20.05
2022-11-07T20:08:58.202Z,19.75
2022-11-07T20:11:26.198Z,15.13
2022-11-07T20:13:58.600Z,15.73
2022-11-07T20:16:27.688Z,14.07
2022-11-07T20:18:54.824Z,19.15
2022-11-07T20:21:23.687Z,12.68
2022-11-07T20:23:53.976Z,16.90
2022-11-07T20:26:23.968Z,16.27
2022-11-07T20:28:51.482Z,15.25
2022-11-07T20:31:30.999Z,14.98
2022-11-07T20:33:59.599Z,14.50
2022-11-07T20:36:27.203Z,15.10
2022-11-07T20:38:56.270Z,13.27
2022-11-07T20:41:24.244Z,14.35
2022-11-07T20:44:04.050Z,15.45
2022-11-07T20:46:33.164Z,14.48
2022-11-07T20:49:04.686Z,16.00
2022-11-07T20:51:32.355Z,17.40
2022-11-07T20:53:59.727Z,16.83
2022-11-07T20:56:29.073Z,14.13
2022-11-07T20:58:58.291Z,13.10
2022-11-07T21:01:36.758Z,13.57
2022-11-07T21:04:11.658Z,12.95
2022-11-07T21:06:38.654Z,15.77
2022-11-07T21:09:06.666Z,17.25
2022-11-07T21:11:33.990Z,15.07
2022-11-07T21:14:01.293Z,16.02
2022-11-07T21:16:28.865Z,17.00
2022-11-07T21:18:57.190Z,8.57
2022-11-07T21:21:27.719Z,13.75
2022-11-07T21:23:56.963Z,11.50
2022-11-07T21:26:42.212Z,10.93
2022-11-07T21:29:09.717Z,11.80
2022-11-07T21:31:38.935Z,13.38
2022-11-07T21:34:11.334Z,11.18
2022-11-07T21:36:38.539Z,12.95
2022-11-07T21:39:07.624Z,11.88
2022-11-07T21:41:35.435Z,16.70
2022-11-07T21:44:02.650Z,14.77
2022-11-07T21:46:34.536Z,15.52
2022-11-07T21:49:02.008Z,14.45
2022-11-07T21:51:31.722Z,14.50
2022-11-07T21:54:00.052Z,12.18
2022-11-07T21:56:29.536Z,14.30
2022-11-07T21:58:59.111Z,14.40
2022-11-07T22:01:27.376Z,12.70
2022-11-07T22:04:11.920Z,16.33
2022-11-07T22:06:42.147Z,17.13
2022-11-07T22:09:10.824Z,16.95
2022-11-07T22:11:37.828Z,14.73
2022-11-07T22:14:05.149Z,17.52
2022-11-07T22:16:32.546Z,21.70
2022-11-07T22:19:00.689Z,20.92
2022-11-07T22:21:27.892Z,17.38
2022-11-07T22:23:56.535Z,17.60
2022-11-07T22:26:26.105Z,14.82
2022-11-07T22:28:54.253Z,15.52
2022-11-07T22:31:27.156Z,17.92
2022-11-07T22:33:54.990Z,12.57
2022-11-07T22:36:22.213Z,13.88
2022-11-07T22:38:49.877Z,23.48
2022-11-07T22:41:23.058Z,22.00
2022-11-07T22:43:50.733Z,21.88
2022-11-07T22:46:21.126Z,16.10
2022-11-07T22:48:49.650Z,18.02
2022-11-07T22:51:25.253Z,14.77
2022-11-07T22:54:11.559Z,16.65
2022-11-07T22:56:39.412Z,16.63
2022-11-07T22:59:07.166Z,15.90
2022-11-07T23:01:49.447Z,12.15
2022-11-07T23:04:18.332Z,13.68
2022-11-07T23:06:45.834Z,12.20
2022-11-07T23:09:15.266Z,13.73
2022-11-07T23:11:46.878Z,16.65
2022-11-07T23:14:16.777Z,17.25
2022-11-07T23:16:45.995Z,18.65
2022-11-07T23:19:15.362Z,17.27
2022-11-07T23:21:43.124Z,21.40
2022-11-07T23:24:10.800Z,19.00
2022-11-07T23:26:38.522Z,19.48
2022-11-07T23:29:18.282Z,19.67
2022-11-07T23:31:47.798Z,21.40
2022-11-07T23:34:15.573Z,20.30
2022-11-07T23:36:44.739Z,23.30
2022-11-07T23:39:17.281Z,28.15
2022-11-07T23:41:44.877Z,21.10
2022-11-07T23:44:12.534Z,17.50
2022-11-07T23:46:58.661Z,21.83
2022-11-07T23:49:44.549Z,20.55
2022-11-07T23:52:11.724Z,22.42
2022-11-07T23:54:57.483Z,19.70
2022-11-07T23:57:24.584Z,20.02
